sensor_id;sensor_type;location;lat;lon;timestamp;P1;durP1;ratioP1;P2;durP2;ratioP2
74894;SDS011;63447;49.446;8.666;2023-01-04T00:01:12;7.75;;;3.80;;
74894;SDS011;63447;49.446;8.666;2023-01-04T00:03:42;9.18;;;4.50;;
74894;SDS011;63447;49.446;8.666;2023-01-04T00:06:12;9.40;;;4.80;;
74894;SDS011;63447;49.446;8.666;2023-01-04T00:08:41;8.88;;;4.45;;
74894;SDS011;63447;49.446;8.666;2023-01-04T00:11:13;10.18;;;5.55;;
74894;SDS011;63447;49.446;8.666;2023-01-04T00:13:41;9.65;;;6.03;;
74894;SDS011;63447;49.446;8.666;2023-01-04T00:16:11;9.40;;;5.18;;
74894;SDS011;63447;49.446;8.666;2023-01-04T00:18:41;12.35;;;7.20;;
74894;SDS011;63447;49.446;8.666;2023-01-04T00:21:08;13.93;;;7.40;;
74894;SDS011;63447;49.446;8.666;2023-01-04T00:23:39;12.93;;;6.97;;
74894;SDS011;63447;49.446;8.666;2023-01-04T00:26:09;15.23;;;7.70;;
74894;SDS011;63447;49.446;8.666;2023-01-04T00:28:45;11.43;;;6.60;;
74894;SDS011;63447;49.446;8.666;2023-01-04T00:31:11;11.20;;;6.68;;
74894;SDS011;63447;49.446;8.666;2023-01-04T00:33:37;10.35;;;6.30;;
74894;SDS011;63447;49.446;8.666;2023-01-04T00:36:03;14.32;;;6.50;;
74894;SDS011;63447;49.446;8.666;2023-01-04T00:38:35;10.02;;;6.30;;
74894;SDS011;63447;49.446;8.666;2023-01-04T00:41:01;9.93;;;6.00;;
74894;SDS011;63447;49.446;8.666;2023-01-04T00:43:27;10.63;;;5.72;;
74894;SDS011;63447;49.446;8.666;2023-01-04T00:45:55;10.45;;;5.57;;
74894;SDS011;63447;49.446;8.666;2023-01-04T00:48:21;10.23;;;5.57;;
74894;SDS011;63447;49.446;8.666;2023-01-04T00:53:13;10.57;;;5.20;;
74894;SDS011;63447;49.446;8.666;2023-01-04T00:55:39;11.07;;;5.72;;
74894;SDS011;63447;49.446;8.666;2023-01-04T00:58:07;10.38;;;6.00;;
74894;SDS011;63447;49.446;8.666;2023-01-04T01:00:33;11.02;;;6.28;;
74894;SDS011;63447;49.446;8.666;2023-01-04T01:03:02;10.27;;;6.10;;
74894;SDS011;63447;49.446;8.666;2023-01-04T01:05:30;10.30;;;5.57;;
74894;SDS011;63447;49.446;8.666;2023-01-04T01:07:58;9.80;;;5.38;;
74894;SDS011;63447;49.446;8.666;2023-01-04T01:10:43;9.95;;;5.53;;
74894;SDS011;63447;49.446;8.666;2023-01-04T01:13:08;9.43;;;5.33;;
74894;SDS011;63447;49.446;8.666;2023-01-04T01:15:34;10.77;;;5.47;;
74894;SDS011;63447;49.446;8.666;2023-01-04T01:18:03;10.10;;;5.63;;
74894;SDS011;63447;49.446;8.666;2023-01-04T01:20:29;10.32;;;5.40;;
74894;SDS011;63447;49.446;8.666;2023-01-04T01:25:19;10.43;;;5.37;;
74894;SDS011;63447;49.446;8.666;2023-01-04T01:27:45;11.17;;;5.97;;
74894;SDS011;63447;49.446;8.666;2023-01-04T01:32:35;10.57;;;5.72;;
74894;SDS011;63447;49.446;8.666;2023-01-04T01:37:26;11.70;;;6.07;;
74894;SDS011;63447;49.446;8.666;2023-01-04T01:39:53;10.30;;;6.22;;
74894;SDS011;63447;49.446;8.666;2023-01-04T01:49:52;10.27;;;6.30;;
74894;SDS011;63447;49.446;8.666;2023-01-04T01:52:21;11.68;;;6.55;;
74894;SDS011;63447;49.446;8.666;2023-01-04T01:54:59;12.05;;;6.65;;
74894;SDS011;63447;49.446;8.666;2023-01-04T01:57:30;12.77;;;7.15;;
74894;SDS011;63447;49.446;8.666;2023-01-04T02:00:02;12.02;;;7.13;;
74894;SDS011;63447;49.446;8.666;2023-01-04T02:02:41;14.10;;;7.97;;
74894;SDS011;63447;49.446;8.666;2023-01-04T02:05:14;14.07;;;7.57;;
74894;SDS011;63447;49.446;8.666;2023-01-04T02:07:45;13.55;;;8.10;;
74894;SDS011;63447;49.446;8.666;2023-01-04T02:10:13;13.27;;;7.28;;
74894;SDS011;63447;49.446;8.666;2023-01-04T02:12:39;13.00;;;7.20;;
74894;SDS011;63447;49.446;8.666;2023-01-04T02:20:31;10.38;;;6.03;;
74894;SDS011;63447;49.446;8.666;2023-01-04T02:29:20;12.98;;;7.15;;
74894;SDS011;63447;49.446;8.666;2023-01-04T02:35:06;14.75;;;8.30;;
74894;SDS011;63447;49.446;8.666;2023-01-04T02:37:39;13.98;;;8.30;;
74894;SDS011;63447;49.446;8.666;2023-01-04T02:42:57;15.52;;;8.93;;
74894;SDS011;63447;49.446;8.666;2023-01-04T02:45:47;16.52;;;8.65;;
74894;SDS011;63447;49.446;8.666;2023-01-04T02:48:19;14.65;;;8.85;;
74894;SDS011;63447;49.446;8.666;2023-01-04T02:53:30;16.37;;;8.30;;
74894;SDS011;63447;49.446;8.666;2023-01-04T03:04:35;14.85;;;8.13;;
74894;SDS011;63447;49.446;8.666;2023-01-04T03:07:48;12.70;;;7.80;;
74894;SDS011;63447;49.446;8.666;2023-01-04T03:13:20;14.18;;;7.95;;
74894;SDS011;63447;49.446;8.666;2023-01-04T03:16:14;12.20;;;7.90;;
74894;SDS011;63447;49.446;8.666;2023-01-04T03:18:48;12.10;;;7.90;;
74894;SDS011;63447;49.446;8.666;2023-01-04T03:21:17;12.20;;;7.07;;
74894;SDS011;63447;49.446;8.666;2023-01-04T03:23:47;11.93;;;7.03;;
74894;SDS011;63447;49.446;8.666;2023-01-04T03:26:36;10.77;;;6.45;;
74894;SDS011;63447;49.446;8.666;2023-01-04T03:29:34;10.55;;;6.00;;
74894;SDS011;63447;49.446;8.666;2023-01-04T03:32:26;11.55;;;6.50;;
74894;SDS011;63447;49.446;8.666;2023-01-04T03:35:14;11.32;;;6.85;;
74894;SDS011;63447;49.446;8.666;2023-01-04T03:37:55;10.20;;;6.00;;
74894;SDS011;63447;49.446;8.666;2023-01-04T03:40:50;12.05;;;7.00;;
74894;SDS011;63447;49.446;8.666;2023-01-04T03:43:45;11.88;;;7.10;;
74894;SDS011;63447;49.446;8.666;2023-01-04T03:46:39;12.15;;;6.25;;
74894;SDS011;63447;49.446;8.666;2023-01-04T03:49:39;12.90;;;7.45;;
74894;SDS011;63447;49.446;8.666;2023-01-04T03:52:12;12.45;;;7.93;;
74894;SDS011;63447;49.446;8.666;2023-01-04T03:54:40;11.98;;;7.60;;
74894;SDS011;63447;49.446;8.666;2023-01-04T03:57:08;14.40;;;8.00;;
74894;SDS011;63447;49.446;8.666;2023-01-04T03:59:40;14.18;;;7.70;;
74894;SDS011;63447;49.446;8.666;2023-01-04T04:02:10;14.85;;;9.15;;
74894;SDS011;63447;49.446;8.666;2023-01-04T04:04:38;14.05;;;8.32;;
74894;SDS011;63447;49.446;8.666;2023-01-04T04:07:25;16.05;;;9.25;;
74894;SDS011;63447;49.446;8.666;2023-01-04T04:10:09;15.90;;;9.68;;
74894;SDS011;63447;49.446;8.666;2023-01-04T04:14:59;16.73;;;8.57;;
74894;SDS011;63447;49.446;8.666;2023-01-04T04:17:27;16.58;;;8.48;;
74894;SDS011;63447;49.446;8.666;2023-01-04T04:22:17;18.63;;;10.13;;
74894;SDS011;63447;49.446;8.666;2023-01-04T04:24:42;16.95;;;9.38;;
74894;SDS011;63447;49.446;8.666;2023-01-04T04:27:10;20.67;;;10.77;;
74894;SDS011;63447;49.446;8.666;2023-01-04T04:29:36;21.73;;;11.70;;
74894;SDS011;63447;49.446;8.666;2023-01-04T04:32:03;23.55;;;13.82;;
74894;SDS011;63447;49.446;8.666;2023-01-04T04:36:56;25.07;;;13.73;;
74894;SDS011;63447;49.446;8.666;2023-01-04T04:39:24;25.73;;;14.40;;
74894;SDS011;63447;49.446;8.666;2023-01-04T04:44:15;25.33;;;13.97;;
74894;SDS011;63447;49.446;8.666;2023-01-04T04:46:44;27.08;;;14.57;;
74894;SDS011;63447;49.446;8.666;2023-01-04T04:49:11;22.58;;;12.57;;
74894;SDS011;63447;49.446;8.666;2023-01-04T04:51:38;24.30;;;13.48;;
74894;SDS011;63447;49.446;8.666;2023-01-04T04:54:04;25.77;;;14.02;;
74894;SDS011;63447;49.446;8.666;2023-01-04T04:56:30;27.38;;;13.25;;
74894;SDS011;63447;49.446;8.666;2023-01-04T04:58:58;23.73;;;12.45;;
74894;SDS011;63447;49.446;8.666;2023-01-04T05:03:49;25.33;;;11.93;;
74894;SDS011;63447;49.446;8.666;2023-01-04T05:08:39;21.67;;;11.87;;
74894;SDS011;63447;49.446;8.666;2023-01-04T05:13:31;23.73;;;11.25;;
74894;SDS011;63447;49.446;8.666;2023-01-04T05:16:00;21.25;;;12.18;;
74894;SDS011;63447;49.446;8.666;2023-01-04T05:18:26;20.58;;;10.85;;
74894;SDS011;63447;49.446;8.666;2023-01-04T05:23:19;18.38;;;9.98;;
74894;SDS011;63447;49.446;8.666;2023-01-04T05:25:47;21.98;;;10.85;;
74894;SDS011;63447;49.446;8.666;2023-01-04T05:28:17;21.98;;;11.02;;
74894;SDS011;63447;49.446;8.666;2023-01-04T05:33:21;20.02;;;10.15;;
74894;SDS011;63447;49.446;8.666;2023-01-04T05:35:49;19.35;;;10.02;;
74894;SDS011;63447;49.446;8.666;2023-01-04T05:38:16;21.88;;;10.48;;
74894;SDS011;63447;49.446;8.666;2023-01-04T05:40:43;19.75;;;9.98;;
74894;SDS011;63447;49.446;8.666;2023-01-04T05:45:34;21.50;;;10.63;;
74894;SDS011;63447;49.446;8.666;2023-01-04T05:50:26;21.75;;;11.32;;
74894;SDS011;63447;49.446;8.666;2023-01-04T05:55:17;23.05;;;11.05;;
74894;SDS011;63447;49.446;8.666;2023-01-04T06:00:09;19.23;;;10.10;;
74894;SDS011;63447;49.446;8.666;2023-01-04T06:02:35;20.67;;;10.70;;
74894;SDS011;63447;49.446;8.666;2023-01-04T06:05:04;20.98;;;10.57;;
74894;SDS011;63447;49.446;8.666;2023-01-04T06:09:58;20.92;;;10.38;;
74894;SDS011;63447;49.446;8.666;2023-01-04T06:12:26;20.42;;;9.30;;
74894;SDS011;63447;49.446;8.666;2023-01-04T06:17:16;18.97;;;9.60;;
74894;SDS011;63447;49.446;8.666;2023-01-04T06:22:07;18.73;;;9.57;;
74894;SDS011;63447;49.446;8.666;2023-01-04T06:26:58;17.10;;;8.30;;
74894;SDS011;63447;49.446;8.666;2023-01-04T06:29:26;16.70;;;8.85;;
74894;SDS011;63447;49.446;8.666;2023-01-04T06:31:54;17.98;;;8.73;;
74894;SDS011;63447;49.446;8.666;2023-01-04T06:34:24;15.77;;;8.30;;
74894;SDS011;63447;49.446;8.666;2023-01-04T06:36:51;17.70;;;8.82;;
74894;SDS011;63447;49.446;8.666;2023-01-04T06:41:44;17.47;;;8.40;;
74894;SDS011;63447;49.446;8.666;2023-01-04T06:44:12;15.77;;;7.78;;
74894;SDS011;63447;49.446;8.666;2023-01-04T06:46:39;14.57;;;7.97;;
74894;SDS011;63447;49.446;8.666;2023-01-04T06:51:33;14.90;;;7.13;;
74894;SDS011;63447;49.446;8.666;2023-01-04T06:56:23;12.43;;;6.47;;
74894;SDS011;63447;49.446;8.666;2023-01-04T07:01:14;11.80;;;5.93;;
74894;SDS011;63447;49.446;8.666;2023-01-04T07:06:04;12.27;;;5.03;;
74894;SDS011;63447;49.446;8.666;2023-01-04T07:08:33;10.18;;;5.80;;
74894;SDS011;63447;49.446;8.666;2023-01-04T07:10:59;10.70;;;5.70;;
74894;SDS011;63447;49.446;8.666;2023-01-04T07:15:50;9.37;;;4.93;;
74894;SDS011;63447;49.446;8.666;2023-01-04T07:20:43;9.23;;;5.05;;
74894;SDS011;63447;49.446;8.666;2023-01-04T07:25:36;9.40;;;4.83;;
74894;SDS011;63447;49.446;8.666;2023-01-04T07:28:04;8.45;;;4.82;;
74894;SDS011;63447;49.446;8.666;2023-01-04T07:30:31;9.02;;;5.20;;
74894;SDS011;63447;49.446;8.666;2023-01-04T07:32:56;11.30;;;5.13;;
74894;SDS011;63447;49.446;8.666;2023-01-04T07:37:48;9.57;;;5.07;;
74894;SDS011;63447;49.446;8.666;2023-01-04T07:42:41;9.60;;;5.10;;
74894;SDS011;63447;49.446;8.666;2023-01-04T07:45:17;8.05;;;4.05;;
74894;SDS011;63447;49.446;8.666;2023-01-04T07:50:10;9.68;;;4.47;;
74894;SDS011;63447;49.446;8.666;2023-01-04T07:55:00;7.63;;;4.20;;
74894;SDS011;63447;49.446;8.666;2023-01-04T07:59:51;9.60;;;4.10;;
74894;SDS011;63447;49.446;8.666;2023-01-04T08:04:44;10.50;;;4.63;;
74894;SDS011;63447;49.446;8.666;2023-01-04T08:07:09;7.65;;;4.00;;
74894;SDS011;63447;49.446;8.666;2023-01-04T08:09:34;7.23;;;3.97;;
74894;SDS011;63447;49.446;8.666;2023-01-04T08:14:25;7.97;;;3.73;;
74894;SDS011;63447;49.446;8.666;2023-01-04T08:19:17;7.18;;;3.22;;
74894;SDS011;63447;49.446;8.666;2023-01-04T08:21:45;6.80;;;2.75;;
74894;SDS011;63447;49.446;8.666;2023-01-04T08:26:36;7.00;;;3.30;;
74894;SDS011;63447;49.446;8.666;2023-01-04T08:29:04;7.55;;;3.33;;
74894;SDS011;63447;49.446;8.666;2023-01-04T08:33:55;6.00;;;3.00;;
74894;SDS011;63447;49.446;8.666;2023-01-04T08:36:23;5.97;;;3.00;;
74894;SDS011;63447;49.446;8.666;2023-01-04T08:38:54;6.68;;;3.20;;
74894;SDS011;63447;49.446;8.666;2023-01-04T08:41:23;8.25;;;3.60;;
74894;SDS011;63447;49.446;8.666;2023-01-04T08:43:49;7.90;;;3.72;;
74894;SDS011;63447;49.446;8.666;2023-01-04T08:46:16;5.82;;;2.75;;
74894;SDS011;63447;49.446;8.666;2023-01-04T08:48:44;7.25;;;2.65;;
74894;SDS011;63447;49.446;8.666;2023-01-04T08:53:38;5.97;;;2.28;;
74894;SDS011;63447;49.446;8.666;2023-01-04T08:56:04;6.20;;;2.45;;
74894;SDS011;63447;49.446;8.666;2023-01-04T08:58:32;6.22;;;2.70;;
74894;SDS011;63447;49.446;8.666;2023-01-04T09:01:02;6.22;;;2.40;;
74894;SDS011;63447;49.446;8.666;2023-01-04T09:03:34;5.43;;;2.50;;
74894;SDS011;63447;49.446;8.666;2023-01-04T09:06:06;5.50;;;2.35;;
74894;SDS011;63447;49.446;8.666;2023-01-04T09:08:34;6.80;;;2.40;;
74894;SDS011;63447;49.446;8.666;2023-01-04T09:11:07;6.65;;;2.38;;
74894;SDS011;63447;49.446;8.666;2023-01-04T09:13:42;5.45;;;2.03;;
74894;SDS011;63447;49.446;8.666;2023-01-04T09:16:09;5.65;;;2.00;;
74894;SDS011;63447;49.446;8.666;2023-01-04T09:18:44;6.22;;;2.03;;
74894;SDS011;63447;49.446;8.666;2023-01-04T09:21:14;4.38;;;1.83;;
74894;SDS011;63447;49.446;8.666;2023-01-04T09:23:41;4.53;;;1.95;;
74894;SDS011;63447;49.446;8.666;2023-01-04T09:26:15;5.10;;;1.90;;
74894;SDS011;63447;49.446;8.666;2023-01-04T09:28:42;5.72;;;2.00;;
74894;SDS011;63447;49.446;8.666;2023-01-04T09:31:09;4.68;;;1.92;;
74894;SDS011;63447;49.446;8.666;2023-01-04T09:33:37;4.25;;;1.80;;
74894;SDS011;63447;49.446;8.666;2023-01-04T09:36:03;4.38;;;1.33;;
74894;SDS011;63447;49.446;8.666;2023-01-04T09:38:30;5.68;;;1.50;;
74894;SDS011;63447;49.446;8.666;2023-01-04T09:41:03;4.63;;;1.45;;
74894;SDS011;63447;49.446;8.666;2023-01-04T09:43:32;4.70;;;1.50;;
74894;SDS011;63447;49.446;8.666;2023-01-04T09:46:04;4.90;;;1.33;;
74894;SDS011;63447;49.446;8.666;2023-01-04T09:48:33;6.55;;;2.80;;
74894;SDS011;63447;49.446;8.666;2023-01-04T09:51:05;4.07;;;1.50;;
74894;SDS011;63447;49.446;8.666;2023-01-04T09:53:46;3.90;;;1.20;;
74894;SDS011;63447;49.446;8.666;2023-01-04T09:56:28;3.17;;;1.15;;
74894;SDS011;63447;49.446;8.666;2023-01-04T09:58:57;3.70;;;1.10;;
74894;SDS011;63447;49.446;8.666;2023-01-04T10:01:32;3.15;;;1.20;;
74894;SDS011;63447;49.446;8.666;2023-01-04T10:06:36;3.40;;;1.00;;
74894;SDS011;63447;49.446;8.666;2023-01-04T10:09:03;3.58;;;0.77;;
74894;SDS011;63447;49.446;8.666;2023-01-04T10:14:12;3.38;;;0.93;;
74894;SDS011;63447;49.446;8.666;2023-01-04T10:25:14;3.45;;;1.13;;
74894;SDS011;63447;49.446;8.666;2023-01-04T10:27:52;3.42;;;1.00;;
74894;SDS011;63447;49.446;8.666;2023-01-04T10:33:29;3.45;;;1.10;;
74894;SDS011;63447;49.446;8.666;2023-01-04T10:36:16;3.53;;;1.02;;
74894;SDS011;63447;49.446;8.666;2023-01-04T10:38:56;3.90;;;0.90;;
74894;SDS011;63447;49.446;8.666;2023-01-04T10:41:24;5.13;;;1.27;;
74894;SDS011;63447;49.446;8.666;2023-01-04T10:46:28;3.40;;;1.20;;
74894;SDS011;63447;49.446;8.666;2023-01-04T10:51:36;3.22;;;1.27;;
74894;SDS011;63447;49.446;8.666;2023-01-04T10:56:58;3.80;;;1.20;;
74894;SDS011;63447;49.446;8.666;2023-01-04T11:02:21;3.78;;;1.13;;
74894;SDS011;63447;49.446;8.666;2023-01-04T11:10:28;6.90;;;1.40;;
74894;SDS011;63447;49.446;8.666;2023-01-04T11:13:01;3.70;;;1.20;;
74894;SDS011;63447;49.446;8.666;2023-01-04T11:15:27;4.25;;;1.10;;
74894;SDS011;63447;49.446;8.666;2023-01-04T11:17:53;5.75;;;2.13;;
74894;SDS011;63447;49.446;8.666;2023-01-04T11:20:18;3.67;;;1.08;;
74894;SDS011;63447;49.446;8.666;2023-01-04T11:22:52;4.93;;;1.45;;
74894;SDS011;63447;49.446;8.666;2023-01-04T11:25:26;3.53;;;1.35;;
74894;SDS011;63447;49.446;8.666;2023-01-04T11:27:57;4.80;;;1.40;;
74894;SDS011;63447;49.446;8.666;2023-01-04T11:31:28;6.15;;;1.63;;
74894;SDS011;63447;49.446;8.666;2023-01-04T11:36:30;4.47;;;1.50;;
74894;SDS011;63447;49.446;8.666;2023-01-04T11:38:59;4.22;;;1.35;;
74894;SDS011;63447;49.446;8.666;2023-01-04T11:41:26;3.53;;;1.25;;
74894;SDS011;63447;49.446;8.666;2023-01-04T11:44:00;3.92;;;1.35;;
74894;SDS011;63447;49.446;8.666;2023-01-04T11:46:29;5.40;;;1.40;;
74894;SDS011;63447;49.446;8.666;2023-01-04T11:48:56;3.38;;;1.20;;
74894;SDS011;63447;49.446;8.666;2023-01-04T11:56:29;4.65;;;1.30;;
74894;SDS011;63447;49.446;8.666;2023-01-04T12:01:44;4.95;;;1.30;;
74894;SDS011;63447;49.446;8.666;2023-01-04T12:04:14;3.60;;;1.30;;
74894;SDS011;63447;49.446;8.666;2023-01-04T12:09:13;3.90;;;1.25;;
74894;SDS011;63447;49.446;8.666;2023-01-04T12:11:50;4.60;;;1.05;;
74894;SDS011;63447;49.446;8.666;2023-01-04T12:14:24;3.22;;;1.23;;
74894;SDS011;63447;49.446;8.666;2023-01-04T12:19:26;3.95;;;1.42;;
74894;SDS011;63447;49.446;8.666;2023-01-04T12:21:55;3.13;;;1.23;;
74894;SDS011;63447;49.446;8.666;2023-01-04T12:24:27;4.70;;;1.67;;
74894;SDS011;63447;49.446;8.666;2023-01-04T12:26:55;3.60;;;1.38;;
74894;SDS011;63447;49.446;8.666;2023-01-04T12:31:46;3.93;;;1.40;;
74894;SDS011;63447;49.446;8.666;2023-01-04T12:54:55;4.97;;;1.47;;
74894;SDS011;63447;49.446;8.666;2023-01-04T13:00:00;3.97;;;1.35;;
74894;SDS011;63447;49.446;8.666;2023-01-04T13:02:30;3.92;;;1.42;;
74894;SDS011;63447;49.446;8.666;2023-01-04T13:04:57;4.05;;;1.23;;
74894;SDS011;63447;49.446;8.666;2023-01-04T13:07:40;4.03;;;1.42;;
74894;SDS011;63447;49.446;8.666;2023-01-04T13:10:51;3.97;;;1.20;;
74894;SDS011;63447;49.446;8.666;2023-01-04T13:15:45;6.40;;;1.70;;
74894;SDS011;63447;49.446;8.666;2023-01-04T13:18:32;6.15;;;1.90;;
74894;SDS011;63447;49.446;8.666;2023-01-04T13:23:37;4.20;;;1.50;;
74894;SDS011;63447;49.446;8.666;2023-01-04T13:31:52;4.85;;;1.50;;
74894;SDS011;63447;49.446;8.666;2023-01-04T13:34:21;3.47;;;1.13;;
74894;SDS011;63447;49.446;8.666;2023-01-04T13:36:57;4.38;;;1.42;;
74894;SDS011;63447;49.446;8.666;2023-01-04T13:39:48;4.95;;;1.33;;
74894;SDS011;63447;49.446;8.666;2023-01-04T13:45:12;4.57;;;1.50;;
74894;SDS011;63447;49.446;8.666;2023-01-04T13:47:56;5.18;;;1.65;;
74894;SDS011;63447;49.446;8.666;2023-01-04T13:50:33;4.68;;;1.35;;
74894;SDS011;63447;49.446;8.666;2023-01-04T13:53:01;3.97;;;1.55;;
74894;SDS011;63447;49.446;8.666;2023-01-04T13:55:31;3.90;;;1.23;;
74894;SDS011;63447;49.446;8.666;2023-01-04T13:58:01;4.20;;;1.42;;
74894;SDS011;63447;49.446;8.666;2023-01-04T14:05:51;4.30;;;1.50;;
74894;SDS011;63447;49.446;8.666;2023-01-04T14:10:52;6.30;;;2.15;;
74894;SDS011;63447;49.446;8.666;2023-01-04T14:13:18;5.38;;;1.95;;
74894;SDS011;63447;49.446;8.666;2023-01-04T14:15:44;6.10;;;2.38;;
74894;SDS011;63447;49.446;8.666;2023-01-04T14:18:23;4.97;;;1.95;;
74894;SDS011;63447;49.446;8.666;2023-01-04T14:20:53;5.05;;;1.80;;
74894;SDS011;63447;49.446;8.666;2023-01-04T14:23:34;5.77;;;1.70;;
74894;SDS011;63447;49.446;8.666;2023-01-04T14:26:05;4.28;;;1.52;;
74894;SDS011;63447;49.446;8.666;2023-01-04T14:28:31;3.92;;;1.38;;
74894;SDS011;63447;49.446;8.666;2023-01-04T14:33:31;5.78;;;2.20;;
74894;SDS011;63447;49.446;8.666;2023-01-04T14:38:33;4.83;;;1.80;;
74894;SDS011;63447;49.446;8.666;2023-01-04T14:41:09;6.40;;;2.47;;
74894;SDS011;63447;49.446;8.666;2023-01-04T14:43:52;4.35;;;1.60;;
74894;SDS011;63447;49.446;8.666;2023-01-04T14:46:28;5.00;;;1.77;;
74894;SDS011;63447;49.446;8.666;2023-01-04T14:48:55;4.05;;;1.50;;
74894;SDS011;63447;49.446;8.666;2023-01-04T14:51:21;4.88;;;1.83;;
74894;SDS011;63447;49.446;8.666;2023-01-04T14:53:51;5.15;;;1.80;;
74894;SDS011;63447;49.446;8.666;2023-01-04T14:56:18;6.30;;;3.25;;
74894;SDS011;63447;49.446;8.666;2023-01-04T14:58:44;4.20;;;1.83;;
74894;SDS011;63447;49.446;8.666;2023-01-04T15:01:10;4.18;;;1.35;;
74894;SDS011;63447;49.446;8.666;2023-01-04T15:03:36;4.63;;;1.88;;
74894;SDS011;63447;49.446;8.666;2023-01-04T15:06:02;4.57;;;1.40;;
74894;SDS011;63447;49.446;8.666;2023-01-04T15:08:28;8.25;;;2.65;;
74894;SDS011;63447;49.446;8.666;2023-01-04T15:10:56;5.47;;;1.60;;
74894;SDS011;63447;49.446;8.666;2023-01-04T15:13:22;4.60;;;1.97;;
74894;SDS011;63447;49.446;8.666;2023-01-04T15:15:47;8.50;;;4.07;;
74894;SDS011;63447;49.446;8.666;2023-01-04T15:18:16;4.00;;;1.45;;
74894;SDS011;63447;49.446;8.666;2023-01-04T15:20:41;3.75;;;1.23;;
74894;SDS011;63447;49.446;8.666;2023-01-04T15:23:07;3.50;;;1.40;;
74894;SDS011;63447;49.446;8.666;2023-01-04T15:25:33;4.28;;;1.55;;
74894;SDS011;63447;49.446;8.666;2023-01-04T15:27:58;3.53;;;1.42;;
74894;SDS011;63447;49.446;8.666;2023-01-04T15:30:24;2.80;;;1.00;;
74894;SDS011;63447;49.446;8.666;2023-01-04T15:32:49;4.43;;;1.70;;
74894;SDS011;63447;49.446;8.666;2023-01-04T15:35:22;4.57;;;1.38;;
74894;SDS011;63447;49.446;8.666;2023-01-04T15:37:47;4.75;;;2.03;;
74894;SDS011;63447;49.446;8.666;2023-01-04T15:40:14;3.65;;;1.10;;
74894;SDS011;63447;49.446;8.666;2023-01-04T15:42:41;6.03;;;1.60;;
74894;SDS011;63447;49.446;8.666;2023-01-04T15:47:58;4.50;;;1.63;;
74894;SDS011;63447;49.446;8.666;2023-01-04T15:50:27;5.13;;;1.60;;
74894;SDS011;63447;49.446;8.666;2023-01-04T15:52:53;5.80;;;2.17;;
74894;SDS011;63447;49.446;8.666;2023-01-04T15:55:20;4.13;;;1.40;;
74894;SDS011;63447;49.446;8.666;2023-01-04T15:57:45;5.47;;;1.88;;
74894;SDS011;63447;49.446;8.666;2023-01-04T16:00:11;4.67;;;1.67;;
74894;SDS011;63447;49.446;8.666;2023-01-04T16:02:37;7.80;;;2.35;;
74894;SDS011;63447;49.446;8.666;2023-01-04T16:05:02;6.18;;;2.20;;
74894;SDS011;63447;49.446;8.666;2023-01-04T16:07:30;4.47;;;1.63;;
74894;SDS011;63447;49.446;8.666;2023-01-04T16:09:55;4.97;;;1.40;;
74894;SDS011;63447;49.446;8.666;2023-01-04T16:12:21;5.37;;;1.50;;
74894;SDS011;63447;49.446;8.666;2023-01-04T16:17:31;3.60;;;1.42;;
74894;SDS011;63447;49.446;8.666;2023-01-04T16:19:57;3.65;;;1.33;;
74894;SDS011;63447;49.446;8.666;2023-01-04T16:22:25;6.32;;;1.70;;
74894;SDS011;63447;49.446;8.666;2023-01-04T16:24:50;4.37;;;1.27;;
74894;SDS011;63447;49.446;8.666;2023-01-04T16:27:16;7.05;;;1.83;;
74894;SDS011;63447;49.446;8.666;2023-01-04T16:29:41;5.75;;;1.77;;
74894;SDS011;63447;49.446;8.666;2023-01-04T16:32:06;4.63;;;1.20;;
74894;SDS011;63447;49.446;8.666;2023-01-04T16:34:32;5.20;;;1.30;;
74894;SDS011;63447;49.446;8.666;2023-01-04T16:36:57;4.23;;;1.27;;
74894;SDS011;63447;49.446;8.666;2023-01-04T16:39:22;3.70;;;1.10;;
74894;SDS011;63447;49.446;8.666;2023-01-04T16:41:48;4.55;;;1.30;;
74894;SDS011;63447;49.446;8.666;2023-01-04T16:44:14;4.82;;;1.48;;
74894;SDS011;63447;49.446;8.666;2023-01-04T16:46:39;3.45;;;1.40;;
74894;SDS011;63447;49.446;8.666;2023-01-04T16:49:11;5.97;;;1.40;;
74894;SDS011;63447;49.446;8.666;2023-01-04T16:51:39;3.45;;;1.35;;
74894;SDS011;63447;49.446;8.666;2023-01-04T16:54:07;3.58;;;1.27;;
74894;SDS011;63447;49.446;8.666;2023-01-04T16:56:35;3.70;;;1.38;;
74894;SDS011;63447;49.446;8.666;2023-01-04T16:59:02;3.97;;;1.50;;
74894;SDS011;63447;49.446;8.666;2023-01-04T17:01:29;3.22;;;1.08;;
74894;SDS011;63447;49.446;8.666;2023-01-04T17:04:00;4.05;;;1.30;;
74894;SDS011;63447;49.446;8.666;2023-01-04T17:06:33;4.18;;;1.20;;
74894;SDS011;63447;49.446;8.666;2023-01-04T17:09:00;4.03;;;1.40;;
74894;SDS011;63447;49.446;8.666;2023-01-04T17:11:31;3.83;;;1.13;;
74894;SDS011;63447;49.446;8.666;2023-01-04T17:13:57;6.75;;;1.40;;
74894;SDS011;63447;49.446;8.666;2023-01-04T17:16:23;3.97;;;1.10;;
74894;SDS011;63447;49.446;8.666;2023-01-04T17:18:49;5.07;;;1.13;;
74894;SDS011;63447;49.446;8.666;2023-01-04T17:21:18;5.20;;;1.42;;
74894;SDS011;63447;49.446;8.666;2023-01-04T17:23:47;5.13;;;1.45;;
74894;SDS011;63447;49.446;8.666;2023-01-04T17:26:14;3.08;;;1.30;;
74894;SDS011;63447;49.446;8.666;2023-01-04T17:28:44;3.50;;;1.23;;
74894;SDS011;63447;49.446;8.666;2023-01-04T17:31:11;6.07;;;1.90;;
74894;SDS011;63447;49.446;8.666;2023-01-04T17:33:44;4.88;;;1.42;;
74894;SDS011;63447;49.446;8.666;2023-01-04T17:36:11;6.10;;;2.40;;
74894;SDS011;63447;49.446;8.666;2023-01-04T17:38:38;4.13;;;1.80;;
74894;SDS011;63447;49.446;8.666;2023-01-04T17:41:08;4.68;;;2.13;;
74894;SDS011;63447;49.446;8.666;2023-01-04T17:43:35;4.38;;;1.85;;
74894;SDS011;63447;49.446;8.666;2023-01-04T17:46:01;5.05;;;1.50;;
74894;SDS011;63447;49.446;8.666;2023-01-04T17:48:29;3.92;;;1.33;;
74894;SDS011;63447;49.446;8.666;2023-01-04T17:50:55;3.50;;;1.40;;
74894;SDS011;63447;49.446;8.666;2023-01-04T17:53:21;4.38;;;1.77;;
74894;SDS011;63447;49.446;8.666;2023-01-04T17:55:47;3.90;;;1.60;;
74894;SDS011;63447;49.446;8.666;2023-01-04T17:58:14;5.72;;;1.45;;
74894;SDS011;63447;49.446;8.666;2023-01-04T18:00:40;6.97;;;2.40;;
74894;SDS011;63447;49.446;8.666;2023-01-04T18:03:05;5.03;;;1.80;;
74894;SDS011;63447;49.446;8.666;2023-01-04T18:05:33;4.07;;;1.60;;
74894;SDS011;63447;49.446;8.666;2023-01-04T18:07:58;4.45;;;2.00;;
74894;SDS011;63447;49.446;8.666;2023-01-04T18:10:26;7.80;;;1.97;;
74894;SDS011;63447;49.446;8.666;2023-01-04T18:12:51;4.68;;;1.58;;
74894;SDS011;63447;49.446;8.666;2023-01-04T18:15:16;6.87;;;2.40;;
74894;SDS011;63447;49.446;8.666;2023-01-04T18:17:44;4.50;;;1.60;;
74894;SDS011;63447;49.446;8.666;2023-01-04T18:20:13;3.88;;;1.52;;
74894;SDS011;63447;49.446;8.666;2023-01-04T18:22:39;3.88;;;1.30;;
74894;SDS011;63447;49.446;8.666;2023-01-04T18:25:04;4.23;;;1.50;;
74894;SDS011;63447;49.446;8.666;2023-01-04T18:27:30;4.40;;;1.52;;
74894;SDS011;63447;49.446;8.666;2023-01-04T18:29:55;3.70;;;1.60;;
74894;SDS011;63447;49.446;8.666;2023-01-04T18:32:21;4.55;;;1.40;;
74894;SDS011;63447;49.446;8.666;2023-01-04T18:34:48;3.80;;;1.63;;
74894;SDS011;63447;49.446;8.666;2023-01-04T18:37:16;4.55;;;1.55;;
74894;SDS011;63447;49.446;8.666;2023-01-04T18:39:42;4.95;;;1.50;;
74894;SDS011;63447;49.446;8.666;2023-01-04T18:42:07;4.32;;;1.63;;
74894;SDS011;63447;49.446;8.666;2023-01-04T18:44:33;4.47;;;2.00;;
74894;SDS011;63447;49.446;8.666;2023-01-04T18:46:58;6.00;;;1.87;;
74894;SDS011;63447;49.446;8.666;2023-01-04T18:49:23;7.27;;;2.70;;
74894;SDS011;63447;49.446;8.666;2023-01-04T18:51:49;4.57;;;2.47;;
74894;SDS011;63447;49.446;8.666;2023-01-04T18:54:14;5.20;;;2.70;;
74894;SDS011;63447;49.446;8.666;2023-01-04T18:56:44;4.38;;;2.00;;
74894;SDS011;63447;49.446;8.666;2023-01-04T18:59:10;4.22;;;1.90;;
74894;SDS011;63447;49.446;8.666;2023-01-04T19:01:35;8.33;;;3.00;;